createdAt,value
2022-11-16T00:02:14.170Z,18.80
2022-11-16T00:04:42.636Z,19.20
2022-11-16T00:07:11.288Z,19.00
2022-11-16T00:09:39.699Z,18.60
2022-11-16T00:12:10.943Z,18.90
2022-11-16T00:14:39.030Z,18.30
2022-11-16T00:17:07.188Z,18.50
2022-11-16T00:19:35.359Z,18.70
2022-11-16T00:22:03.535Z,18.20
2022-11-16T00:24:31.607Z,18.40
2022-11-16T00:26:59.776Z,18.30
2022-11-16T00:29:27.952Z,19.00
2022-11-16T00:31:56.431Z,19.30
2022-11-16T00:34:25.116Z,17.90
2022-11-16T00:36:53.288Z,17.30
2022-11-16T00:39:21.531Z,15.90
2022-11-16T00:41:50.659Z,16.00
2022-11-16T00:44:19.135Z,16.20
2022-11-16T00:46:47.313Z,15.30
2022-11-16T00:49:15.592Z,15.50
2022-11-16T00:51:44.064Z,15.50
2022-11-16T00:54:12.651Z,13.90
2022-11-16T00:56:41.233Z,14.40
2022-11-16T00:59:09.407Z,13.80
2022-11-16T01:01:37.664Z,12.60
2022-11-16T01:04:05.954Z,13.20
2022-11-16T01:06:34.332Z,12.60
2022-11-16T01:09:02.608Z,11.40
2022-11-16T01:11:49.312Z,12.70
2022-11-16T01:14:17.488Z,13.00
2022-11-16T01:16:45.559Z,12.90
2022-11-16T01:19:13.733Z,12.10
2022-11-16T01:21:42.012Z,12.40
2022-11-16T01:24:10.289Z,11.60
2022-11-16T01:26:38.566Z,10.60
2022-11-16T01:29:07.246Z,10.90
2022-11-16T01:31:41.442Z,10.40
2022-11-16T01:34:10.044Z,9.40
2022-11-16T01:36:38.314Z,9.20
2022-11-16T01:39:06.803Z,8.80
2022-11-16T01:41:44.938Z,8.20
2022-11-16T01:44:31.635Z,6.10
2022-11-16T01:47:11.977Z,6.30
2022-11-16T01:49:46.228Z,4.90
2022-11-16T01:52:19.786Z,4.50
2022-11-16T01:54:51.741Z,3.70
2022-11-16T01:57:37.120Z,3.00
2022-11-16T02:00:11.024Z,2.50
2022-11-16T02:02:42.477Z,2.00
2022-11-16T02:05:21.507Z,1.90
2022-11-16T02:08:17.319Z,1.80
2022-11-16T02:11:04.638Z,1.80
2022-11-16T02:13:51.639Z,1.70
2022-11-16T02:16:41.767Z,1.30
2022-11-16T02:19:31.107Z,1.00
2022-11-16T02:22:25.839Z,1.20
2022-11-16T02:25:17.523Z,1.10
2022-11-16T02:27:45.492Z,1.20
2022-11-16T02:30:14.256Z,1.10
2022-11-16T02:32:47.622Z,0.80
2022-11-16T02:35:57.118Z,1.10
2022-11-16T02:38:31.300Z,0.80
2022-11-16T02:41:08.409Z,0.90
2022-11-16T02:43:47.035Z,0.90
2022-11-16T02:46:21.368Z,0.80
2022-11-16T02:48:56.383Z,0.80
2022-11-16T02:51:27.534Z,0.70
2022-11-16T02:54:13.190Z,0.80
2022-11-16T02:57:04.217Z,0.50
2022-11-16T02:59:44.953Z,0.70
2022-11-16T03:02:38.559Z,0.70
2022-11-16T03:05:13.692Z,0.50
2022-11-16T03:07:52.649Z,0.70
2022-11-16T03:10:41.060Z,0.90
2022-11-16T03:13:12.817Z,0.70
2022-11-16T03:15:42.204Z,0.70
2022-11-16T03:18:16.814Z,0.80
2022-11-16T03:20:46.725Z,1.00
2022-11-16T03:23:14.824Z,0.70
2022-11-16T03:25:53.032Z,0.70
2022-11-16T03:28:29.400Z,0.70
2022-11-16T03:31:15.081Z,0.60
2022-11-16T03:33:48.713Z,0.70
2022-11-16T03:36:31.381Z,0.60
2022-11-16T03:39:06.610Z,0.70
2022-11-16T03:41:37.675Z,0.70
2022-11-16T03:44:07.407Z,0.60
2022-11-16T03:46:35.600Z,0.70
2022-11-16T03:49:03.670Z,0.50
2022-11-16T03:51:34.818Z,0.80
2022-11-16T03:54:03.182Z,0.70
2022-11-16T03:56:31.940Z,0.80
2022-11-16T03:59:00.019Z,0.70
2022-11-16T04:01:30.398Z,0.60
2022-11-16T04:03:58.807Z,0.70
2022-11-16T04:06:45.618Z,0.90
2022-11-16T04:09:22.901Z,1.10
2022-11-16T04:12:10.025Z,1.40
2022-11-16T04:14:57.651Z,1.10
2022-11-16T04:17:45.687Z,1.30
2022-11-16T04:20:34.243Z,0.80
2022-11-16T04:23:29.582Z,0.60
2022-11-16T04:25:57.924Z,0.80
2022-11-16T04:28:32.333Z,0.70
2022-11-16T04:31:23.249Z,0.60
2022-11-16T04:34:30.542Z,0.40
2022-11-16T04:37:17.758Z,0.50
2022-11-16T04:39:46.249Z,0.60
2022-11-16T04:42:15.961Z,2.20
2022-11-16T04:45:12.284Z,1.60
2022-11-16T04:47:51.044Z,2.90
2022-11-16T04:50:20.584Z,3.20
2022-11-16T04:52:49.704Z,1.20
2022-11-16T04:55:17.965Z,1.20
2022-11-16T04:57:46.615Z,1.50
2022-11-16T05:00:16.063Z,1.30
2022-11-16T05:02:45.440Z,1.20
2022-11-16T05:05:13.896Z,1.00
2022-11-16T05:07:44.074Z,1.60
2022-11-16T05:10:17.360Z,2.20
2022-11-16T05:12:45.737Z,2.20
2022-11-16T05:15:14.932Z,1.40
2022-11-16T05:17:43.310Z,1.50
2022-11-16T05:20:35.183Z,1.50
2022-11-16T05:23:05.155Z,1.70
2022-11-16T05:25:37.184Z,1.40
2022-11-16T05:28:08.075Z,1.30
2022-11-16T05:30:39.401Z,1.60
2022-11-16T05:33:07.355Z,1.70
2022-11-16T05:35:38.510Z,1.30
2022-11-16T05:38:07.502Z,2.10
2022-11-16T05:40:39.464Z,3.00
2022-11-16T05:43:07.481Z,4.10
2022-11-16T05:45:39.295Z,3.10
2022-11-16T05:48:07.673Z,2.00
2022-11-16T05:50:41.294Z,2.00
2022-11-16T05:53:15.388Z,1.90
2022-11-16T05:55:43.603Z,1.90
2022-11-16T05:58:12.171Z,2.60
2022-11-16T06:00:40.218Z,2.00
2022-11-16T06:03:09.353Z,4.40
2022-11-16T06:05:40.413Z,4.70
2022-11-16T06:08:09.334Z,3.10
2022-11-16T06:10:37.510Z,2.10
2022-11-16T06:13:05.993Z,6.50
2022-11-16T06:15:38.455Z,4.90
2022-11-16T06:18:07.766Z,3.10
2022-11-16T06:20:39.423Z,2.20
2022-11-16T06:23:07.792Z,1.90
2022-11-16T06:25:39.847Z,2.10
2022-11-16T06:28:08.458Z,2.00
2022-11-16T06:30:41.428Z,2.00
2022-11-16T06:33:09.912Z,2.10
2022-11-16T06:35:38.163Z,2.30
2022-11-16T06:38:06.376Z,2.50
2022-11-16T06:40:35.176Z,2.50
2022-11-16T06:43:03.891Z,3.00
2022-11-16T06:45:32.003Z,4.50
2022-11-16T06:48:01.196Z,4.60
2022-11-16T06:50:29.369Z,4.90
2022-11-16T06:53:00.922Z,4.90
2022-11-16T06:55:30.018Z,8.90
2022-11-16T06:57:58.410Z,5.00
2022-11-16T07:00:28.104Z,2.50
2022-11-16T07:02:57.306Z,4.10
2022-11-16T07:05:25.573Z,2.80
2022-11-16T07:07:57.745Z,1.90
2022-11-16T07:10:26.325Z,1.60
2022-11-16T07:12:55.329Z,2.10
2022-11-16T07:15:24.310Z,2.00
2022-11-16T07:17:52.798Z,1.90
2022-11-16T07:20:21.173Z,1.90
2022-11-16T07:22:49.236Z,1.40
2022-11-16T07:25:18.636Z,1.30
2022-11-16T07:27:47.737Z,1.20
2022-11-16T07:30:16.929Z,1.90
2022-11-16T07:33:00.463Z,1.30
2022-11-16T07:35:47.079Z,1.00
2022-11-16T07:38:18.016Z,1.60
2022-11-16T07:40:46.897Z,0.60
2022-11-16T07:43:17.781Z,0.70
2022-11-16T07:46:45.364Z,0.80
2022-11-16T07:49:11.181Z,0.90
2022-11-16T07:51:48.911Z,1.20
2022-11-16T07:54:27.127Z,1.90
2022-11-16T07:56:55.705Z,1.10
2022-11-16T07:59:23.882Z,0.90
2022-11-16T08:01:52.119Z,1.00
2022-11-16T08:04:20.529Z,1.00
2022-11-16T08:06:52.078Z,0.90
2022-11-16T08:09:20.627Z,1.70
2022-11-16T08:11:51.188Z,1.30
2022-11-16T08:14:19.770Z,1.50
2022-11-16T08:16:49.379Z,1.20
2022-11-16T08:19:18.375Z,0.90
2022-11-16T08:21:46.410Z,0.70
2022-11-16T08:24:15.129Z,0.70
2022-11-16T08:26:43.713Z,1.00
2022-11-16T08:29:15.366Z,0.60
2022-11-16T08:31:47.740Z,0.60
2022-11-16T08:34:19.087Z,0.30
2022-11-16T08:36:50.498Z,0.40
2022-11-16T08:39:19.739Z,0.50
2022-11-16T08:41:47.797Z,0.40
2022-11-16T08:44:16.081Z,0.70
2022-11-16T08:46:46.704Z,0.50
2022-11-16T08:49:22.348Z,1.00
2022-11-16T08:51:50.422Z,0.80
2022-11-16T08:54:19.854Z,0.60
2022-11-16T08:56:49.019Z,1.10
2022-11-16T08:59:17.808Z,0.90
2022-11-16T09:01:50.384Z,0.60
2022-11-16T09:04:18.889Z,0.80
2022-11-16T09:06:46.934Z,1.00
2022-11-16T09:09:15.016Z,1.00
2022-11-16T09:11:43.381Z,0.70
2022-11-16T09:14:13.170Z,0.70
2022-11-16T09:16:41.267Z,0.80
2022-11-16T09:19:09.335Z,0.60
2022-11-16T09:21:37.916Z,1.00
2022-11-16T09:24:06.512Z,1.70
2022-11-16T09:26:34.620Z,1.00
2022-11-16T09:29:04.587Z,2.10
2022-11-16T09:31:34.935Z,1.50
2022-11-16T09:34:03.448Z,0.60
2022-11-16T09:36:32.201Z,0.60
2022-11-16T09:41:48.543Z,0.50
2022-11-16T09:44:31.513Z,0.50
2022-11-16T09:47:01.306Z,0.70
2022-11-16T09:49:33.699Z,0.90
2022-11-16T09:52:13.115Z,0.70
2022-11-16T09:54:45.322Z,0.80
2022-11-16T09:57:29.425Z,0.90
2022-11-16T10:00:14.641Z,1.10
2022-11-16T10:02:47.942Z,1.70
2022-11-16T10:05:24.384Z,1.50
2022-11-16T10:07:59.875Z,1.70
2022-11-16T10:10:37.832Z,1.30
2022-11-16T10:13:33.716Z,1.70
2022-11-16T10:16:22.815Z,1.70
2022-11-16T10:19:20.269Z,1.80
2022-11-16T10:21:55.917Z,1.90
2022-11-16T10:24:43.575Z,1.80
2022-11-16T10:27:30.355Z,1.90
2022-11-16T10:30:35.804Z,2.00
2022-11-16T10:33:19.628Z,2.10
2022-11-16T10:35:54.087Z,2.20
2022-11-16T10:38:27.608Z,2.30
2022-11-16T10:41:16.398Z,2.70
2022-11-16T10:43:45.675Z,2.60
2022-11-16T10:46:31.274Z,2.50
2022-11-16T10:49:05.481Z,2.60
2022-11-16T10:51:33.671Z,2.40
2022-11-16T10:54:01.870Z,2.40
2022-11-16T10:56:41.566Z,2.40
2022-11-16T10:59:11.414Z,2.80
2022-11-16T11:01:50.111Z,5.10
2022-11-16T11:04:27.051Z,11.50
2022-11-16T11:06:57.819Z,10.10
2022-11-16T11:09:30.864Z,7.90
2022-11-16T11:12:37.031Z,5.20
2022-11-16T11:15:10.788Z,3.00
2022-11-16T11:17:44.094Z,3.10
2022-11-16T11:20:18.211Z,2.80
2022-11-16T11:22:57.801Z,3.50
2022-11-16T11:25:33.769Z,3.40
2022-11-16T11:28:28.840Z,3.00
2022-11-16T11:31:04.709Z,2.90
2022-11-16T11:33:48.746Z,4.20
2022-11-16T11:36:20.047Z,4.00
2022-11-16T11:38:57.523Z,4.00
2022-11-16T11:41:28.637Z,3.40
2022-11-16T11:44:15.247Z,4.20
2022-11-16T11:47:42.241Z,4.10
2022-11-16T11:49:52.287Z,5.80
2022-11-16T11:52:33.666Z,2.60
2022-11-16T11:55:05.954Z,3.30
2022-11-16T11:57:39.700Z,2.90
2022-11-16T12:00:09.403Z,6.40
2022-11-16T12:03:04.094Z,8.70
2022-11-16T12:06:02.761Z,2.70
2022-11-16T12:08:47.491Z,2.60
2022-11-16T12:11:21.835Z,4.70
2022-11-16T12:14:05.218Z,4.20
2022-11-16T12:17:05.872Z,4.40
2022-11-16T12:19:59.751Z,3.10
2022-11-16T12:22:33.769Z,2.70
2022-11-16T12:25:01.696Z,4.40
2022-11-16T12:27:51.095Z,3.40
2022-11-16T12:30:22.201Z,4.20
2022-11-16T12:33:05.186Z,3.70
2022-11-16T12:35:38.976Z,3.00
2022-11-16T12:38:24.851Z,3.90
2022-11-16T12:41:31.759Z,3.00
2022-11-16T12:44:03.387Z,3.40
2022-11-16T12:47:01.358Z,4.40
2022-11-16T12:49:38.535Z,3.70
2022-11-16T12:52:18.999Z,3.80
2022-11-16T12:58:14.639Z,3.20
2022-11-16T13:00:52.112Z,3.20
2022-11-16T13:03:39.649Z,2.70
2022-11-16T13:06:15.448Z,2.20
2022-11-16T13:09:04.021Z,2.90
2022-11-16T13:11:47.078Z,3.20
2022-11-16T13:14:23.580Z,2.70
2022-11-16T13:16:52.514Z,3.50
2022-11-16T13:19:21.500Z,3.10
2022-11-16T13:22:14.890Z,3.20
2022-11-16T13:24:54.813Z,2.80
2022-11-16T13:28:09.477Z,2.50
2022-11-16T13:31:11.063Z,3.30
2022-11-16T13:33:51.370Z,3.20
2022-11-16T13:36:43.796Z,2.70
2022-11-16T13:39:22.261Z,3.80
2022-11-16T13:42:05.741Z,4.20
2022-11-16T13:44:34.904Z,4.90
2022-11-16T13:47:06.451Z,2.80
2022-11-16T13:49:43.886Z,3.10
2022-11-16T13:52:54.051Z,3.00
2022-11-16T13:55:15.549Z,2.60
2022-11-16T13:57:52.592Z,2.30
2022-11-16T14:00:33.776Z,2.20
2022-11-16T14:03:16.689Z,2.20
2022-11-16T14:05:47.361Z,2.00
2022-11-16T14:08:24.960Z,2.30
2022-11-16T14:10:53.187Z,1.90
2022-11-16T14:13:30.315Z,2.40
2022-11-16T14:16:17.707Z,2.00
2022-11-16T14:18:54.063Z,1.90
2022-11-16T14:21:51.826Z,1.70
2022-11-16T14:24:30.685Z,2.40
2022-11-16T14:27:06.605Z,3.40
2022-11-16T14:30:10.014Z,2.80
2022-11-16T14:32:46.037Z,2.40
2022-11-16T14:35:40.760Z,2.10
2022-11-16T14:38:44.561Z,1.60
2022-11-16T14:41:22.820Z,2.20
2022-11-16T14:43:53.956Z,2.40
2022-11-16T14:46:26.532Z,3.20
2022-11-16T14:48:56.811Z,3.50
2022-11-16T14:51:33.113Z,2.60
2022-11-16T14:54:05.415Z,3.00
2022-11-16T14:56:33.477Z,2.20
2022-11-16T14:59:03.465Z,3.10
2022-11-16T15:01:35.725Z,2.90
2022-11-16T15:04:07.146Z,2.70
2022-11-16T15:06:49.080Z,3.00
2022-11-16T15:09:32.953Z,2.80
2022-11-16T15:12:27.067Z,3.10
2022-11-16T15:14:58.060Z,2.50
2022-11-16T15:17:31.692Z,2.40
2022-11-16T15:20:14.390Z,2.50
2022-11-16T15:22:45.360Z,2.70
2022-11-16T15:25:35.548Z,3.00
2022-11-16T15:28:13.885Z,2.80
2022-11-16T15:30:45.065Z,2.30
2022-11-16T15:33:19.150Z,2.20
2022-11-16T15:35:47.529Z,3.10
2022-11-16T15:38:18.016Z,2.60
2022-11-16T15:41:00.484Z,3.00
2022-11-16T15:43:55.336Z,3.10
2022-11-16T15:46:33.532Z,2.10
2022-11-16T15:49:02.523Z,1.80
2022-11-16T15:51:34.297Z,1.80
2022-11-16T15:54:23.751Z,2.10
2022-11-16T15:56:55.167Z,1.90
2022-11-16T15:59:32.044Z,2.60
2022-11-16T16:02:00.252Z,2.70
2022-11-16T16:04:29.252Z,3.10
2022-11-16T16:06:59.995Z,4.10
2022-11-16T16:09:39.617Z,2.40
2022-11-16T16:12:26.535Z,2.90
2022-11-16T16:15:23.090Z,3.30
2022-11-16T16:17:53.028Z,3.90
2022-11-16T16:20:24.248Z,3.00
2022-11-16T16:22:52.447Z,2.70
2022-11-16T16:25:31.941Z,3.20
2022-11-16T16:28:00.393Z,2.50
2022-11-16T16:30:30.232Z,2.10
2022-11-16T16:32:59.041Z,2.50
2022-11-16T16:35:27.741Z,2.50
2022-11-16T16:38:01.282Z,2.80
2022-11-16T16:40:29.757Z,2.60
2022-11-16T16:42:58.127Z,4.10
2022-11-16T16:45:38.268Z,3.10
2022-11-16T16:48:06.926Z,4.50
2022-11-16T16:50:35.438Z,3.20
2022-11-16T16:53:03.960Z,4.30
2022-11-16T16:55:37.012Z,3.40
2022-11-16T16:58:06.145Z,4.00
2022-11-16T17:00:34.293Z,3.70
2022-11-16T17:03:02.476Z,3.40
2022-11-16T17:05:32.925Z,3.60
2022-11-16T17:08:01.544Z,3.20
2022-11-16T17:10:29.532Z,2.60
2022-11-16T17:12:57.720Z,3.10
2022-11-16T17:15:26.646Z,3.90
2022-11-16T17:17:54.806Z,3.70
2022-11-16T17:20:22.745Z,3.30
2022-11-16T17:22:50.739Z,2.90
2022-11-16T17:25:18.810Z,2.20
2022-11-16T17:27:46.993Z,2.30
2022-11-16T17:30:16.038Z,2.40
2022-11-16T17:32:44.147Z,3.10
2022-11-16T17:35:12.941Z,2.80
2022-11-16T17:37:40.935Z,2.80
2022-11-16T17:40:09.838Z,2.20
2022-11-16T17:42:38.067Z,2.40
2022-11-16T17:45:06.988Z,2.70
2022-11-16T17:47:35.354Z,3.60
2022-11-16T17:50:04.737Z,2.30
2022-11-16T17:52:32.909Z,2.60
2022-11-16T17:55:00.980Z,2.70
2022-11-16T17:57:29.200Z,2.40
2022-11-16T17:59:57.367Z,2.40
2022-11-16T18:02:25.527Z,2.50
2022-11-16T18:04:53.540Z,3.60
2022-11-16T18:07:21.712Z,3.00
2022-11-16T18:09:49.919Z,3.60
2022-11-16T18:12:17.984Z,3.70
2022-11-16T18:15:00.133Z,2.60
2022-11-16T18:17:35.528Z,3.00
2022-11-16T18:20:04.928Z,3.00
2022-11-16T18:22:32.900Z,2.70
2022-11-16T18:25:00.857Z,3.00
2022-11-16T18:27:28.853Z,3.10
2022-11-16T18:29:56.868Z,3.00
2022-11-16T18:32:24.843Z,3.40
2022-11-16T18:34:53.256Z,3.60
2022-11-16T18:37:21.330Z,2.90
2022-11-16T18:39:49.271Z,2.90
2022-11-16T18:42:17.357Z,3.00
2022-11-16T18:44:45.915Z,3.30
2022-11-16T18:47:13.904Z,2.80
2022-11-16T18:49:41.928Z,3.00
2022-11-16T18:52:10.053Z,3.30
2022-11-16T18:54:38.222Z,2.70
2022-11-16T18:57:06.292Z,3.40
2022-11-16T18:59:34.316Z,3.40
2022-11-16T19:02:02.547Z,3.80
2022-11-16T19:04:30.813Z,3.10
2022-11-16T19:06:59.037Z,3.50
2022-11-16T19:09:27.977Z,4.40
2022-11-16T19:11:56.049Z,3.90
2022-11-16T19:14:24.187Z,3.50
2022-11-16T19:16:56.862Z,2.60
2022-11-16T19:19:27.944Z,3.20
2022-11-16T19:21:57.141Z,4.10
2022-11-16T19:24:25.205Z,3.40
2022-11-16T19:26:53.278Z,3.10
2022-11-16T19:29:21.454Z,3.00
2022-11-16T19:31:49.563Z,2.10
2022-11-16T19:34:17.802Z,2.20
2022-11-16T19:36:45.862Z,2.20
2022-11-16T19:39:13.804Z,2.40
2022-11-16T19:41:41.791Z,2.30
2022-11-16T19:44:10.077Z,2.80
2022-11-16T19:46:38.152Z,3.20
2022-11-16T19:49:06.429Z,3.10
2022-11-16T19:51:34.724Z,2.40
2022-11-16T19:54:03.266Z,2.50
2022-11-16T19:56:31.493Z,3.20
2022-11-16T19:59:00.779Z,3.30
2022-11-16T20:01:29.717Z,5.20
2022-11-16T20:04:00.381Z,5.10
2022-11-16T20:06:31.279Z,3.80
2022-11-16T20:09:04.153Z,2.90
2022-11-16T20:11:36.476Z,2.90
2022-11-16T20:14:07.330Z,3.10
2022-11-16T20:16:39.308Z,3.70
2022-11-16T20:19:09.636Z,3.60
2022-11-16T20:21:42.523Z,3.00
2022-11-16T20:24:19.959Z,3.70
2022-11-16T20:26:49.266Z,4.20
2022-11-16T20:29:20.303Z,3.40
2022-11-16T20:31:48.335Z,3.70
2022-11-16T20:34:17.675Z,2.70
2022-11-16T20:36:47.385Z,3.80
2022-11-16T20:39:17.677Z,2.40
2022-11-16T20:41:46.176Z,2.20
2022-11-16T20:44:22.338Z,2.10
2022-11-16T20:46:52.756Z,2.10
2022-11-16T20:49:21.167Z,2.40
2022-11-16T20:51:51.298Z,2.20
2022-11-16T20:54:19.335Z,2.80
2022-11-16T20:56:49.737Z,2.80
2022-11-16T20:59:18.495Z,2.20
2022-11-16T21:01:48.890Z,2.50
2022-11-16T21:04:17.251Z,2.70
2022-11-16T21:06:45.627Z,3.10
2022-11-16T21:09:22.701Z,2.90
2022-11-16T21:12:09.764Z,2.10
2022-11-16T21:14:37.836Z,2.00
2022-11-16T21:17:05.866Z,2.40
2022-11-16T21:19:33.938Z,1.80
2022-11-16T21:22:02.002Z,2.20
2022-11-16T21:24:31.885Z,2.20
2022-11-16T21:26:59.987Z,1.90
2022-11-16T21:29:28.414Z,2.20
2022-11-16T21:31:56.546Z,2.20
2022-11-16T21:34:25.635Z,2.20
2022-11-16T21:36:54.011Z,2.30
2022-11-16T21:39:22.469Z,2.00
2022-11-16T21:41:50.560Z,2.20
2022-11-16T21:44:18.502Z,2.00
2022-11-16T21:46:46.600Z,2.20
2022-11-16T21:49:14.536Z,1.90
2022-11-16T21:51:42.636Z,2.00
2022-11-16T21:54:10.639Z,2.30
2022-11-16T21:56:38.692Z,1.70
2022-11-16T21:59:06.664Z,2.00
2022-11-16T22:01:54.847Z,2.20
2022-11-16T22:04:41.561Z,1.90
2022-11-16T22:07:33.036Z,2.00
2022-11-16T22:10:02.723Z,2.00
2022-11-16T22:15:35.938Z,1.90
2022-11-16T22:18:04.659Z,2.10
2022-11-16T22:20:32.899Z,1.90
2022-11-16T22:23:00.931Z,1.90
2022-11-16T22:25:29.246Z,2.20
2022-11-16T22:30:51.199Z,2.10
2022-11-16T22:33:20.078Z,2.00
2022-11-16T22:35:48.153Z,2.00
2022-11-16T22:38:16.206Z,2.00
2022-11-16T22:40:51.893Z,2.20
2022-11-16T22:43:22.104Z,2.50
2022-11-16T22:45:50.596Z,2.50
2022-11-16T22:48:18.743Z,2.40
2022-11-16T22:50:46.919Z,2.20
2022-11-16T22:53:15.092Z,2.40
2022-11-16T22:55:43.367Z,2.50
2022-11-16T22:58:11.438Z,2.50
2022-11-16T23:00:42.186Z,2.40
2022-11-16T23:03:10.704Z,2.30
2022-11-16T23:05:38.921Z,2.40
2022-11-16T23:08:07.198Z,2.30
2022-11-16T23:10:55.244Z,2.50
2022-11-16T23:13:41.844Z,2.40
2022-11-16T23:16:09.913Z,2.30
2022-11-16T23:18:37.969Z,2.50
2022-11-16T23:21:24.633Z,2.60
2022-11-16T23:24:11.499Z,2.70
2022-11-16T23:26:58.622Z,2.90
2022-11-16T23:29:26.903Z,3.00
2022-11-16T23:31:55.067Z,2.90
2022-11-16T23:34:23.124Z,3.00
2022-11-16T23:36:51.212Z,2.30
2022-11-16T23:39:19.481Z,2.70
2022-11-16T23:42:05.987Z,3.00
2022-11-16T23:44:34.009Z,2.80
2022-11-16T23:47:02.128Z,2.80
2022-11-16T23:49:30.303Z,3.10
2022-11-16T23:51:58.351Z,2.70
2022-11-16T23:54:26.645Z,2.60
2022-11-16T23:56:54.719Z,2.90
2022-11-16T23:59:22.767Z,2.80
